Time;durP1;ratioP1;P1;durP2;ratioP2;P2;SDS_P1;SDS_P2;PMS_P1;PMS_P2;Temp;Humidity;BMP_temperature;BMP_pressure;BME280_temperature;BME280_humidity;BME280_pressure;Samples;Min_cycle;Max_cycle;Signal;HPM_P1;HPM_P2
2022/08/05 00:02:18;;;;;;;;;11.50;10.50;;;;;25.91;42.54;100779.81;146608;575;46020;-79
2022/08/05 00:05:19;;;;;;;;;14.00;13.75;;;;;25.90;42.20;100775.41;146605;586;46016;-78
2022/08/05 00:08:23;;;;;;;;;;;;;;;;;;;;;
2022/08/05 00:11:21;;;;;;;;;12.25;12.00;;;;;25.77;43.21;100777.28;146605;597;46016;-80
2022/08/05 00:14:40;;;;;;;;;11.50;11.50;;;;;25.71;43.35;100777.34;146609;570;46010;-83
2022/08/05 00:17:32;;;;;;;;;13.00;12.00;;;;;25.65;43.27;100781.84;146605;586;46016;-78
2022/08/05 00:20:25;;;;;;;;;11.75;11.75;;;;;25.60;44.04;100779.22;146610;587;46010;-82
2022/08/05 00:23:17;;;;;;;;;10.25;9.75;;;;;25.59;43.57;100772.16;146606;636;46014;-85
2022/08/05 00:26:20;;;;;;;;;14.00;13.25;;;;;25.55;43.86;100773.97;146608;653;46021;-84
2022/08/05 00:29:15;;;;;;;;;14.00;13.50;;;;;25.48;44.03;100771.38;146606;607;46016;-86
2022/08/05 00:32:12;;;;;;;;;13.25;12.25;;;;;25.43;43.51;100765.25;146607;585;46020;-88
2022/08/05 00:35:05;;;;;;;;;10.25;10.25;;;;;25.40;44.22;100763.50;146609;606;46012;-88
2022/08/05 00:38:00;;;;;;;;;13.00;13.00;;;;;25.35;44.79;100765.31;146608;619;46020;-90
2022/08/05 00:41:01;;;;;;;;;11.25;10.50;;;;;25.30;44.32;100767.12;146606;573;46012;-73
2022/08/05 00:43:54;;;;;;;;;12.25;12.00;;;;;25.25;44.32;100761.84;146608;607;46010;-79
2022/08/05 00:46:53;;;;;;;;;11.75;11.00;;;;;25.23;44.45;100763.63;146606;580;46016;-81
2022/08/05 00:49:56;;;;;;;;;14.50;12.00;;;;;25.21;44.69;100752.16;146607;566;46021;-80
2022/08/05 00:52:54;;;;;;;;;11.00;10.50;;;;;25.22;44.91;100763.66;146609;565;46012;-80
2022/08/05 00:55:49;;;;;;;;;14.00;14.00;;;;;25.19;44.35;100763.69;146608;584;46012;-78
2022/08/05 00:58:44;;;;;;;;;12.50;11.00;;;;;25.18;44.35;100760.16;146607;613;46012;-83
2022/08/05 01:01:48;;;;;;;;;12.25;11.75;;;;;25.21;43.35;100760.13;146606;571;47010;-84
2022/08/05 01:04:50;;;;;;;;;15.25;14.25;;;;;25.32;43.11;100754.72;146605;573;46917;-83
2022/08/05 01:07:52;;;;;;;;;11.75;11.25;;;;;25.42;43.44;100756.41;146608;575;46020;-84
2022/08/05 01:10:51;;;;;;;;;14.00;11.50;;;;;25.46;44.00;100758.13;146604;570;46017;-86
2022/08/05 01:14:22;;;;;;;;;10.50;10.50;;;;;25.42;43.09;100761.72;146607;566;46010;-82
2022/08/05 01:17:31;;;;;;;;;12.25;12.00;;;;;25.37;43.16;100757.34;146607;564;46017;-82
2022/08/05 01:21:03;;;;;;;;;13.25;13.25;;;;;25.33;43.70;100760.03;146607;603;46010;-82
2022/08/05 01:24:37;;;;;;;;;11.25;10.00;;;;;25.24;43.59;100754.78;146606;615;46015;-72
2022/08/05 01:28:08;;;;;;;;;13.25;12.00;;;;;25.15;44.40;100754.00;146606;564;47021;-75
2022/08/05 01:31:18;;;;;;;;;11.25;11.25;;;;;25.05;44.74;100762.00;146605;575;46016;-74
2022/08/05 01:34:43;;;;;;;;;11.00;10.00;;;;;24.32;44.46;100651.09;146608;604;46020;-75
2022/08/05 01:38:13;;;;;;;;;9.00;9.00;;;;;24.80;43.68;100766.59;146606;564;46016;-75
2022/08/05 01:41:13;;;;;;;;;11.75;11.75;;;;;24.75;44.74;100768.38;146608;616;46021;-76
2022/08/05 01:44:16;;;;;;;;;13.75;13.00;;;;;24.77;44.24;100765.72;146605;591;46926;-78
2022/08/05 01:47:30;;;;;;;;;;;;;;;;;;;;;
2022/08/05 01:50:59;;;;;;;;;13.00;11.50;;;;;24.19;43.40;100629.97;146607;701;46011;-74
2022/08/05 01:54:08;;;;;;;;;14.50;10.25;;;;;25.06;43.59;100755.78;146608;606;46021;-75
2022/08/05 01:57:07;;;;;;;;;15.00;12.00;;;;;25.23;44.15;100760.09;146607;608;46016;-76
2022/08/05 02:00:22;;;;;;;;;16.00;13.25;;;;;25.33;43.10;100753.84;146610;603;46010;-78
2022/08/05 02:03:51;;;;;;;;;14.75;14.75;;;;;25.43;43.87;100757.28;146606;661;46017;-77
2022/08/05 02:06:47;;;;;;;;;15.75;13.00;;;;;25.45;47.10;100755.47;146608;622;46020;-76
2022/08/05 02:09:43;;;;;;;;;12.25;12.25;;;;;25.48;47.22;100755.44;146606;594;46016;-74
2022/08/05 02:13:17;;;;;;;;;11.50;11.50;;;;;24.75;46.70;100634.91;146607;581;46020;-79
2022/08/05 02:16:39;;;;;;;;;11.00;10.50;;;;;25.44;45.94;100753.72;146604;616;46018;-78
2022/08/05 02:19:55;;;;;;;;;15.00;13.00;;;;;25.44;45.96;100745.75;146605;604;46020;-75
2022/08/05 02:22:55;;;;;;;;;12.00;11.75;;;;;25.38;47.77;100751.12;146604;580;46924;-72
2022/08/05 02:25:56;;;;;;;;;14.00;12.75;;;;;25.26;47.45;100752.97;146609;574;46030;-73
2022/08/05 02:29:10;;;;;;;;;10.75;9.75;;;;;25.17;47.06;100746.88;146607;636;46014;-74
2022/08/05 02:32:20;;;;;;;;;9.50;9.50;;;;;25.06;45.66;100747.81;146610;569;45021;-78
2022/08/05 02:35:26;;;;;;;;;13.25;13.25;;;;;25.06;46.84;100749.59;146606;651;46016;-79
2022/08/05 02:38:26;;;;;;;;;12.75;12.00;;;;;25.00;45.98;100744.34;146610;604;46010;-83
2022/08/05 02:41:32;;;;;;;;;10.75;10.75;;;;;25.02;45.28;100739.91;146600;596;48924;-80
2022/08/05 02:44:43;;;;;;;;;;;;;;;;;;;;;
2022/08/05 02:47:41;;;;;;;;;10.00;10.00;;;;;25.03;45.60;100744.31;146606;633;46039;-76
2022/08/05 02:50:38;;;;;;;;;13.75;13.00;;;;;25.03;45.99;100742.53;146605;634;46020;-76
2022/08/05 02:53:36;;;;;;;;;15.00;14.50;;;;;25.09;46.26;100744.28;146607;592;46015;-75
2022/08/05 02:56:44;;;;;;;;;12.00;12.00;;;;;25.16;47.89;100742.47;146605;605;46020;-76
2022/08/05 02:59:52;;;;;;;;;13.25;11.50;;;;;24.46;48.01;100624.56;146608;565;46012;-76
2022/08/05 03:03:09;;;;;;;;;13.50;11.25;;;;;25.05;47.30;100739.88;146608;646;46010;-76
2022/08/05 03:06:28;;;;;;;;;12.00;11.00;;;;;25.07;46.04;100738.97;146606;569;46016;-74
2022/08/05 03:09:39;;;;;;;;;11.75;11.75;;;;;25.16;45.43;100735.37;146607;581;46021;-73
2022/08/05 03:12:52;;;;;;;;;11.75;11.25;;;;;24.77;45.93;100644.63;146604;574;46014;-74
2022/08/05 03:15:57;;;;;;;;;12.75;12.00;;;;;25.31;47.03;100731.72;146609;581;46020;-74
2022/08/05 03:18:53;;;;;;;;;12.25;11.75;;;;;25.26;46.13;100738.84;146604;707;46016;-80
2022/08/05 03:21:45;;;;;;;;;12.75;12.75;;;;;25.17;46.35;100734.53;146608;569;46020;-80
2022/08/05 03:24:40;;;;;;;;;12.75;11.75;;;;;25.14;46.75;100739.84;146606;580;46017;-81
2022/08/05 03:27:57;;;;;;;;;11.00;11.00;;;;;25.06;46.06;100741.63;146607;569;46023;-78
2022/08/05 03:31:11;;;;;;;;;15.75;14.75;;;;;25.00;46.00;100749.66;146608;572;45031;-82
2022/08/05 03:34:17;;;;;;;;;;;;;;;;;;;;;
2022/08/05 03:37:13;;;;;;;;;10.75;10.25;;;;;24.87;46.14;100747.09;146604;589;46016;-83
2022/08/05 03:40:11;;;;;;;;;13.50;12.00;;;;;24.94;46.26;100749.69;146608;630;46010;-80
2022/08/05 03:43:07;;;;;;;;;14.00;13.25;;;;;24.91;46.58;100755.91;146605;599;46016;-84
2022/08/05 03:46:05;;;;;;;;;12.75;12.75;;;;;24.90;46.25;100762.09;146608;625;46021;-82
2022/08/05 03:48:58;;;;;;;;;13.00;13.00;;;;;24.95;46.75;100764.69;146606;571;46014;-77
2022/08/05 03:52:16;;;;;;;;;13.50;12.00;;;;;24.27;46.38;100644.94;146607;566;46010;-75
2022/08/05 03:55:38;;;;;;;;;15.25;12.75;;;;;23.72;45.72;100561.41;146605;600;46016;-77
2022/08/05 03:58:40;;;;;;;;;15.25;13.25;;;;;24.88;47.41;100748.84;146607;679;46020;-82
2022/08/05 04:01:56;;;;;;;;;15.75;13.50;;;;;24.95;47.07;100762.06;146606;608;46017;-77
2022/08/05 04:04:59;;;;;;;;;12.75;11.50;;;;;25.00;48.49;100768.22;146608;566;46020;-75
2022/08/05 04:07:59;;;;;;;;;9.25;9.25;;;;;25.03;48.07;100770.84;146605;611;46016;-79
2022/08/05 04:11:00;;;;;;;;;10.50;10.50;;;;;25.08;48.36;100774.34;146608;582;46021;-83
2022/08/05 04:14:03;;;;;;;;;16.00;15.25;;;;;25.13;47.15;100772.56;146607;628;46014;-84
2022/08/05 04:17:03;;;;;;;;;12.75;12.25;;;;;25.21;48.03;100778.69;146606;595;48010;-87
2022/08/05 04:19:58;;;;;;;;;14.00;12.50;;;;;25.29;47.42;100782.16;146606;632;46016;-84
2022/08/05 04:23:03;;;;;;;;;14.75;14.75;;;;;25.41;47.84;100777.66;146609;624;46020;-81
2022/08/05 04:25:58;;;;;;;;;16.00;12.25;;;;;25.55;47.80;100784.59;146611;636;46034;-78
2022/08/05 04:29:03;;;;;;;;;11.25;11.25;;;;;25.67;47.15;100780.03;146614;577;46020;-79
2022/08/05 04:31:58;;;;;;;;;15.00;13.00;;;;;25.80;47.81;100787.00;146609;580;46016;-77
2022/08/05 04:34:56;;;;;;;;;12.00;10.25;;;;;25.88;47.94;100789.59;146614;595;46020;-77
2022/08/05 04:37:51;;;;;;;;;11.50;10.00;;;;;25.97;48.24;100789.50;146612;676;46016;-77
2022/08/05 04:40:56;;;;;;;;;12.25;11.75;;;;;26.12;49.35;100789.34;146616;668;46010;-77
2022/08/05 04:43:59;;;;;;;;;13.50;12.25;;;;;26.14;50.55;100781.34;146612;579;46925;-78
2022/08/05 04:47:03;;;;;;;;;12.75;11.50;;;;;26.20;48.11;100786.56;146612;575;47020;-81
2022/08/05 04:50:00;;;;;;;;;14.00;12.75;;;;;26.34;47.35;100795.28;146614;604;46012;-76
2022/08/05 04:52:52;;;;;;;;;10.75;10.25;;;;;26.61;46.94;100790.53;146614;620;45030;-77
2022/08/05 04:55:50;;;;;;;;;17.00;16.00;;;;;26.91;46.29;100790.06;146613;593;45017;-75
2022/08/05 04:58:52;;;;;;;;;13.25;13.25;;;;;26.74;46.41;100719.41;146615;612;46020;-83
2022/08/05 05:01:57;;;;;;;;;14.00;12.00;;;;;27.42;46.40;100791.97;146612;608;46012;-88
2022/08/05 05:04:55;;;;;;;;;12.50;12.25;;;;;27.67;46.39;100792.41;146613;579;46021;-91
2022/08/05 05:07:51;;;;;;;;;14.25;14.25;;;;;27.95;44.68;100783.94;146614;673;46012;-89
2022/08/05 05:11:04;;;;;;;;;14.25;12.75;;;;;28.05;43.14;100748.19;146616;607;46010;-87
2022/08/05 05:14:10;;;;;;;;;15.50;15.50;;;;;28.47;40.69;100785.53;146611;618;46016;-91
2022/08/05 05:17:12;;;;;;;;;14.50;13.50;;;;;28.67;40.84;100790.47;146614;648;46021;-89
2022/08/05 05:20:08;;;;;;;;;14.75;14.00;;;;;28.86;39.83;100786.44;146613;566;46012;-81
2022/08/05 05:23:05;;;;;;;;;16.75;13.25;;;;;29.03;39.80;100785.19;146609;576;46020;-80
2022/08/05 05:26:00;;;;;;;;;13.75;13.00;;;;;29.20;40.52;100789.22;146604;586;47926;-81
2022/08/05 05:28:56;;;;;;;;;16.00;15.25;;;;;29.38;39.57;100781.69;146608;574;46020;-80
2022/08/05 05:31:55;;;;;;;;;14.00;14.00;;;;;29.58;40.08;100781.16;146605;648;46926;-81
2022/08/05 05:34:54;;;;;;;;;16.00;15.00;;;;;29.78;39.14;100789.50;146606;570;46020;-78
2022/08/05 05:38:01;;;;;;;;;12.25;12.00;;;;;29.93;39.33;100786.44;146607;715;46016;-81
2022/08/05 05:40:59;;;;;;;;;17.75;15.50;;;;;30.09;38.37;100781.56;146607;625;46020;-80
2022/08/05 05:43:59;;;;;;;;;17.50;15.50;;;;;30.22;38.71;100784.78;146608;569;46012;-85
2022/08/05 05:46:59;;;;;;;;;15.25;13.00;;;;;30.32;38.63;100788.94;146609;570;46021;-89
2022/08/05 05:50:04;;;;;;;;;14.75;13.50;;;;;30.42;38.95;100785.97;146604;665;46012;-89
2022/08/05 05:53:27;;;;;;;;;11.25;11.25;;;;;29.80;39.18;100671.88;146607;669;46010;-87
2022/08/05 05:56:25;;;;;;;;;14.25;13.00;;;;;30.55;38.70;100785.53;146607;603;46014;-84
2022/08/05 05:59:19;;;;;;;;;16.75;13.75;;;;;30.67;38.68;100784.31;146609;575;46010;-81
2022/08/05 06:02:16;;;;;;;;;15.75;15.00;;;;;30.27;38.65;100686.53;146606;568;46012;-83
2022/08/05 06:05:28;;;;;;;;;14.25;13.25;;;;;29.90;39.19;100603.88;146602;652;46923;-84
2022/08/05 06:08:27;;;;;;;;;13.75;13.00;;;;;31.09;39.80;100783.88;146604;657;46922;-83
2022/08/05 06:11:22;;;;;;;;;13.50;11.00;;;;;31.27;39.28;100779.72;146610;618;45021;-84
2022/08/05 06:14:43;;;;;;;;;13.75;12.75;;;;;31.46;39.01;100785.34;146606;617;46016;-83
2022/08/05 06:17:43;;;;;;;;;10.25;10.25;;;;;31.64;38.11;100792.75;146609;570;46012;-82
2022/08/05 06:20:38;;;;;;;;;10.25;10.00;;;;;31.75;37.73;100792.41;146608;689;46012;-83
2022/08/05 06:23:43;;;;;;;;;13.00;12.00;;;;;31.40;37.81;100740.91;146603;579;46020;-86
2022/08/05 06:26:51;;;;;;;;;;;;;;;;;;;;;
2022/08/05 06:29:46;;;;;;;;;12.00;12.00;;;;;31.98;37.34;100791.59;146609;600;46020;-85
2022/08/05 06:32:49;;;;;;;;;13.50;11.50;;;;;32.06;37.55;100780.59;146606;570;46016;-80
2022/08/05 06:35:57;;;;;;;;;13.00;11.75;;;;;32.05;36.26;100782.37;146607;573;46020;-82
2022/08/05 06:38:54;;;;;;;;;14.50;14.25;;;;;32.04;36.46;100783.31;146605;578;46013;-82
2022/08/05 06:41:49;;;;;;;;;14.75;13.00;;;;;32.07;37.05;100783.19;146607;569;46020;-81
2022/08/05 06:44:47;;;;;;;;;14.00;12.75;;;;;32.16;35.86;100788.22;146605;588;46016;-81
2022/08/05 06:47:43;;;;;;;;;10.00;10.00;;;;;32.25;37.23;100787.00;146607;575;46012;-83
2022/08/05 06:50:35;;;;;;;;;13.00;13.00;;;;;32.38;37.11;100790.09;146606;595;46012;-78
2022/08/05 06:53:35;;;;;;;;;10.25;10.25;;;;;32.51;36.02;100785.16;146610;583;46012;-80
2022/08/05 06:56:54;;;;;;;;;11.75;11.75;;;;;32.59;36.97;100781.25;146605;635;46016;-78
2022/08/05 06:59:37;;;;;;;;;9.50;9.00;;;;;32.68;35.89;100774.66;146606;570;46012;-79
2022/08/05 07:02:14;;;;;;;;;11.25;11.25;;;;;32.78;36.07;100777.84;146604;631;46012;-79
2022/08/05 07:05:08;;;;;;;;;11.50;10.50;;;;;32.86;37.08;100783.75;146609;615;46010;-79
2022/08/05 07:07:47;;;;;;;;;10.75;9.75;;;;;32.86;36.38;100781.94;146605;582;46016;-79
2022/08/05 07:10:34;;;;;;;;;12.50;12.50;;;;;32.36;36.68;100681.94;146606;576;47030;-78
2022/08/05 07:19:26;;;;;;;;;12.00;10.00;;;;;33.08;36.72;100784.66;146602;569;48016;-79
2022/08/05 07:22:20;;;;;;;;;;;;;;;;;;;;;
2022/08/05 07:25:08;;;;;;;;;10.50;10.50;;;;;33.15;36.23;100781.72;146620;620;46016;-80
2022/08/05 07:28:01;;;;;;;;;10.50;10.50;;;;;33.21;36.19;100789.53;146621;621;46020;-78
2022/08/05 07:30:55;;;;;;;;;12.25;11.50;;;;;33.27;35.95;100786.56;146618;728;46017;-79
2022/08/05 07:33:29;;;;;;;;;10.25;10.25;;;;;33.34;36.74;100790.78;146621;631;46020;-79
2022/08/05 07:36:07;;;;;;;;;7.00;6.00;;;;;33.44;36.70;100785.87;146621;563;45016;-79
2022/08/05 07:38:44;;;;;;;;;9.75;8.50;;;;;33.48;34.59;100782.97;146622;578;46020;-77
2022/08/05 07:41:20;;;;;;;;;8.75;8.50;;;;;33.44;34.30;100775.13;146616;624;46016;-78
2022/08/05 07:44:13;;;;;;;;;9.25;9.25;;;;;33.39;34.98;100783.38;146624;713;46020;-78
2022/08/05 07:46:57;;;;;;;;;10.75;8.25;;;;;33.43;35.08;100784.09;146620;718;46017;-79
2022/08/05 07:49:44;;;;;;;;;7.25;7.25;;;;;33.46;32.98;100779.50;146622;592;46020;-77
2022/08/05 07:52:24;;;;;;;;;9.50;7.75;;;;;33.46;33.75;100783.97;146618;633;46017;-79
2022/08/05 07:55:10;;;;;;;;;8.50;8.50;;;;;33.45;32.52;100782.25;146623;656;46020;-80
2022/08/05 07:57:50;;;;;;;;;8.50;8.50;;;;;33.39;33.78;100787.88;146619;712;46016;-79
2022/08/05 08:00:45;;;;;;;;;9.00;7.00;;;;;33.41;33.04;100777.94;146620;600;46021;-79
2022/08/05 08:03:56;;;;;;;;;;;;;;;;;;;;;
2022/08/05 08:06:59;;;;;;;;;;;;;;;;;;;;;
2022/08/05 08:10:14;;;;;;;;;8.75;8.75;;;;;33.49;33.00;100783.84;146619;576;46018;-79
2022/08/05 08:13:14;;;;;;;;;10.00;8.25;;;;;33.56;32.52;100791.62;146624;564;45028;-80
2022/08/05 08:16:09;;;;;;;;;8.00;8.00;;;;;33.59;31.92;100789.75;146620;610;46016;-79
2022/08/05 08:19:01;;;;;;;;;9.50;8.75;;;;;33.56;31.92;100793.44;146618;563;46020;-78
2022/08/05 08:21:58;;;;;;;;;8.50;8.50;;;;;33.53;32.49;100786.37;146617;576;46014;-78
2022/08/05 08:25:18;;;;;;;;;8.50;8.00;;;;;33.57;32.15;100787.13;146625;622;46010;-79
2022/08/05 08:28:15;;;;;;;;;6.25;6.25;;;;;33.64;31.79;100787.72;146620;691;45032;-78
2022/08/05 08:31:25;;;;;;;;;6.75;6.75;;;;;33.66;32.17;100793.91;146623;564;45020;-77
2022/08/05 08:34:20;;;;;;;;;8.25;7.50;;;;;33.62;31.36;100784.25;146619;595;46016;-77
2022/08/05 08:37:13;;;;;;;;;11.75;9.50;;;;;33.50;31.04;100783.81;146621;564;46020;-79
2022/08/05 08:40:14;;;;;;;;;8.75;8.25;;;;;33.40;31.67;100784.25;146619;663;46016;-78
2022/08/05 08:43:26;;;;;;;;;10.75;9.50;;;;;33.40;31.80;100785.13;146621;564;45020;-78
2022/08/05 08:46:27;;;;;;;;;9.50;8.75;;;;;33.49;31.84;100775.78;146616;644;47012;-79
2022/08/05 08:49:26;;;;;;;;;7.50;7.50;;;;;33.52;32.48;100778.38;146623;610;45020;-80
2022/08/05 08:52:37;;;;;;;;;8.25;8.25;;;;;33.51;32.49;100782.00;146622;662;45017;-77
2022/08/05 08:55:42;;;;;;;;;8.50;8.50;;;;;33.53;32.81;100762.19;146623;578;46010;-78
2022/08/05 08:58:44;;;;;;;;;6.25;6.25;;;;;33.56;31.99;100766.56;146620;594;46015;-77
2022/08/05 09:01:49;;;;;;;;;8.75;7.25;;;;;33.66;31.24;100772.41;146617;571;46020;-78
2022/08/05 09:04:42;;;;;;;;;12.00;10.75;;;;;33.79;31.91;100766.41;146621;605;46016;-78
2022/08/05 09:07:42;;;;;;;;;8.50;8.50;;;;;33.94;31.74;100762.16;146621;674;45036;-80
2022/08/05 09:10:50;;;;;;;;;9.75;8.50;;;;;33.48;32.66;100663.81;146619;563;46016;-78
2022/08/05 09:13:59;;;;;;;;;;;;;;;;;;;;;
2022/08/05 09:17:02;;;;;;;;;9.75;8.00;;;;;34.24;31.88;100756.34;146621;643;45016;-78
2022/08/05 09:19:57;;;;;;;;;8.00;8.00;;;;;34.37;32.23;100751.25;146621;569;46020;-79
2022/08/05 09:23:16;;;;;;;;;10.00;10.00;;;;;34.55;32.56;100739.66;146611;648;48924;-79
2022/08/05 09:26:18;;;;;;;;;11.50;10.50;;;;;34.63;30.03;100739.25;146604;579;46020;-78
2022/08/05 09:29:19;;;;;;;;;9.25;8.75;;;;;34.65;31.53;100740.94;146609;574;46013;-79
2022/08/05 09:32:18;;;;;;;;;10.25;10.25;;;;;34.69;30.69;100729.06;146610;596;46012;-78
2022/08/05 09:35:19;;;;;;;;;10.50;9.50;;;;;34.71;30.91;100729.00;146605;583;46016;-78
2022/08/05 09:38:11;;;;;;;;;10.75;10.75;;;;;34.77;31.71;100734.09;146608;593;46020;-81
2022/08/05 09:41:10;;;;;;;;;9.00;9.00;;;;;34.81;31.74;100727.59;146602;594;47923;-78
2022/08/05 09:44:27;;;;;;;;;10.25;9.75;;;;;34.83;30.35;100731.09;146611;631;46011;-78
2022/08/05 09:47:34;;;;;;;;;10.75;10.25;;;;;34.68;31.09;100735.41;146605;599;46014;-77
2022/08/05 09:51:03;;;;;;;;;;;;;;;;;;;;;
2022/08/05 09:54:11;;;;;;;;;;;;;;;;;;;;;
2022/08/05 09:57:15;;;;;;;;;11.00;11.00;;;;;34.45;32.40;100720.31;146608;566;46020;-80
2022/08/05 10:00:33;;;;;;;;;11.50;9.75;;;;;34.48;32.48;100709.41;146606;579;46012;-76
2022/08/05 10:03:30;;;;;;;;;10.25;9.50;;;;;34.48;31.23;100716.59;146607;636;46020;-78
2022/08/05 10:06:26;;;;;;;;;8.50;8.00;;;;;34.48;30.78;100716.59;146609;703;46013;-77
2022/08/05 10:09:27;;;;;;;;;8.25;7.75;;;;;34.58;31.63;100706.28;146609;576;46020;-80
2022/08/05 10:12:24;;;;;;;;;10.00;8.75;;;;;34.68;29.88;100700.38;146606;616;46016;-78
2022/08/05 10:15:27;;;;;;;;;8.75;8.75;;;;;34.80;29.88;100711.47;146609;569;46010;-81
2022/08/05 10:18:24;;;;;;;;;11.25;11.25;;;;;34.75;28.91;100702.78;146602;570;46016;-81
2022/08/05 10:21:32;;;;;;;;;9.50;9.50;;;;;34.73;30.84;100705.53;146607;637;46012;-83
2022/08/05 10:24:27;;;;;;;;;10.00;9.75;;;;;34.84;31.07;100708.56;146610;628;46016;-81
2022/08/05 10:27:26;;;;;;;;;9.25;8.25;;;;;35.06;31.43;100715.59;146612;569;46020;-87
2022/08/05 10:30:39;;;;;;;;;11.25;10.25;;;;;34.53;31.70;100622.16;146610;595;46017;-85
2022/08/05 10:33:54;;;;;;;;;10.25;10.00;;;;;35.24;31.57;100714.66;146617;599;46012;-89
2022/08/05 10:37:03;;;;;;;;;12.75;11.75;;;;;35.47;30.74;100705.37;146614;570;46012;-85
2022/08/05 10:40:07;;;;;;;;;10.75;10.50;;;;;35.73;30.52;100705.81;146611;694;46020;-85
2022/08/05 10:43:10;;;;;;;;;9.75;9.75;;;;;35.93;30.75;100704.75;146610;581;46015;-83
2022/08/05 10:46:17;;;;;;;;;9.50;9.50;;;;;36.05;30.97;100706.81;146614;653;46020;-88
2022/08/05 10:49:19;;;;;;;;;11.25;11.25;;;;;36.11;30.89;100695.69;146612;667;46014;-87
2022/08/05 10:53:10;;;;;;;;;9.25;8.75;;;;;36.01;29.47;100683.59;146613;606;46021;-84
2022/08/05 10:56:21;;;;;;;;;9.25;9.00;;;;;35.80;28.18;100607.44;146611;697;46016;-86
2022/08/05 10:59:18;;;;;;;;;7.25;6.00;;;;;36.51;26.46;100696.12;146619;639;45021;-86
2022/08/05 11:02:18;;;;;;;;;5.75;5.75;;;;;36.67;25.87;100685.31;146611;659;46016;-82
2022/08/05 11:05:22;;;;;;;;;7.50;6.50;;;;;36.82;27.52;100694.34;146616;578;46010;-85
2022/08/05 11:08:24;;;;;;;;;;;;;;;;;;;;;
2022/08/05 11:11:39;;;;;;;;;7.50;7.50;;;;;36.97;27.22;100679.94;146615;570;46010;-89
2022/08/05 11:14:43;;;;;;;;;4.75;4.75;;;;;37.03;24.72;100684.13;146609;641;46016;-81
2022/08/05 11:17:39;;;;;;;;;5.25;5.25;;;;;37.05;25.29;100676.81;146616;594;46010;-84
2022/08/05 11:21:06;;;;;;;;;5.25;5.25;;;;;36.06;27.81;100512.41;146612;701;46013;-79
2022/08/05 11:24:00;;;;;;;;;9.00;7.25;;;;;37.01;25.65;100675.22;146613;617;46010;-79
2022/08/05 11:27:45;;;;;;;;;6.75;6.25;;;;;36.46;27.97;100576.69;146607;734;46021;-82
2022/08/05 11:31:20;;;;;;;;;6.75;6.75;;;;;36.15;25.67;100520.94;146609;593;46020;-84
2022/08/05 11:34:39;;;;;;;;;7.00;5.75;;;;;37.10;24.83;100670.13;146605;675;46012;-88
2022/08/05 11:38:05;;;;;;;;;8.00;7.00;;;;;36.97;25.35;100661.88;146610;576;45021;-80
2022/08/05 11:41:22;;;;;;;;;6.00;5.25;;;;;36.82;25.58;100668.19;146606;649;46012;-84
2022/08/05 11:44:16;;;;;;;;;6.00;6.00;;;;;36.81;25.05;100674.56;146610;565;46012;-87
2022/08/05 11:47:17;;;;;;;;;5.25;5.25;;;;;36.91;26.99;100661.38;146608;584;45016;-82
2022/08/05 11:50:19;;;;;;;;;7.25;6.25;;;;;37.01;27.20;100664.41;146609;612;46010;-83
2022/08/05 11:53:12;;;;;;;;;7.25;7.00;;;;;37.05;24.36;100669.56;146606;569;46014;-82
2022/08/05 11:56:17;;;;;;;;;6.75;6.75;;;;;37.08;25.37;100663.97;146607;580;46041;-84
2022/08/05 11:59:28;;;;;;;;;5.25;5.25;;;;;37.11;23.67;100658.38;146609;622;46013;-81
2022/08/05 12:02:31;;;;;;;;;6.00;6.00;;;;;37.03;24.19;100660.66;146612;634;46010;-85
2022/08/05 12:05:43;;;;;;;;;7.75;7.75;;;;;36.91;27.03;100639.75;146605;573;46014;-85
2022/08/05 12:08:39;;;;;;;;;8.50;7.00;;;;;37.01;25.75;100651.78;146610;625;46020;-82
2022/08/05 12:11:46;;;;;;;;;;;;;;;;;;;;;
2022/08/05 12:14:49;;;;;;;;;6.25;6.25;;;;;37.14;25.30;100643.81;146613;686;45030;-83
2022/08/05 12:17:45;;;;;;;;;6.25;5.75;;;;;37.10;22.81;100640.41;146607;569;47012;-80
2022/08/05 12:20:40;;;;;;;;;7.00;7.00;;;;;37.00;24.44;100636.53;146611;579;46020;-81
2022/08/05 12:23:49;;;;;;;;;6.75;6.75;;;;;36.81;24.52;100634.03;146609;577;46016;-84
2022/08/05 12:27:05;;;;;;;;;9.00;9.00;;;;;36.08;23.65;100531.22;146617;607;46020;-80
2022/08/05 12:30:22;;;;;;;;;8.75;7.50;;;;;36.02;24.12;100553.13;146614;590;46012;-78
2022/08/05 12:33:25;;;;;;;;;8.50;8.25;;;;;36.36;23.95;100621.38;146615;617;46020;-78
2022/08/05 12:36:24;;;;;;;;;8.50;8.50;;;;;36.30;24.73;100622.63;146612;633;46013;-80
2022/08/05 12:39:30;;;;;;;;;7.50;7.50;;;;;36.28;25.95;100620.00;146612;576;46020;-80
2022/08/05 12:42:27;;;;;;;;;8.00;7.00;;;;;36.27;25.44;100610.16;146610;569;46017;-82
2022/08/05 12:45:24;;;;;;;;;8.00;8.00;;;;;36.30;24.27;100601.03;146616;597;46020;-80
2022/08/05 12:48:27;;;;;;;;;7.25;7.25;;;;;36.36;24.99;100605.16;146607;600;46016;-81
2022/08/05 12:51:23;;;;;;;;;7.75;7.75;;;;;36.34;25.10;100607.97;146615;569;46020;-86
2022/08/05 12:54:35;;;;;;;;;8.50;7.50;;;;;35.77;26.36;100507.81;146614;656;46014;-84
2022/08/05 12:57:47;;;;;;;;;8.00;7.50;;;;;36.31;25.44;100600.91;146614;619;46020;-82
2022/08/05 13:00:50;;;;;;;;;9.00;7.50;;;;;36.16;23.77;100599.09;146613;657;46014;-77
2022/08/05 13:03:51;;;;;;;;;9.50;8.50;;;;;35.98;26.12;100600.09;146613;665;46020;-82
2022/08/05 13:07:11;;;;;;;;;9.50;9.50;;;;;35.90;26.04;100576.28;146613;570;46012;-83
2022/08/05 13:10:14;;;;;;;;;8.00;7.00;;;;;35.97;25.43;100582.19;146615;596;46020;-85
2022/08/05 13:13:18;;;;;;;;;6.50;6.50;;;;;35.97;24.84;100555.22;146613;584;46017;-81
2022/08/05 13:16:20;;;;;;;;;8.50;8.50;;;;;36.18;26.55;100581.00;146609;596;46020;-82
2022/08/05 13:19:32;;;;;;;;;7.50;7.25;;;;;36.33;26.39;100572.94;146614;632;46014;-83
2022/08/05 13:22:28;;;;;;;;;5.25;5.00;;;;;36.44;25.18;100579.47;146617;638;46012;-83
2022/08/05 13:25:22;;;;;;;;;6.25;6.00;;;;;36.52;24.86;100579.91;146621;593;46016;-85
2022/08/05 13:28:19;;;;;;;;;7.00;7.00;;;;;36.55;25.35;100572.59;146624;630;45021;-83
2022/08/05 13:31:11;;;;;;;;;7.00;7.00;;;;;36.54;24.86;100566.31;146619;638;46016;-86
2022/08/05 13:34:03;;;;;;;;;5.25;5.25;;;;;36.51;23.57;100574.59;146621;636;45021;-83
2022/08/05 13:36:59;;;;;;;;;5.00;5.00;;;;;36.46;25.51;100561.34;146620;616;46014;-81
2022/08/05 13:39:57;;;;;;;;;6.00;6.00;;;;;36.34;23.27;100564.78;146622;599;46020;-77
2022/08/05 13:42:55;;;;;;;;;6.25;6.25;;;;;36.25;25.13;100559.91;146623;594;46014;-84
2022/08/05 13:46:06;;;;;;;;;5.00;5.00;;;;;36.22;24.43;100558.25;146625;629;45012;-82
2022/08/05 13:49:04;;;;;;;;;5.50;5.50;;;;;35.77;24.07;100480.81;146619;669;46016;-84
2022/08/05 13:52:26;;;;;;;;;9.00;7.00;;;;;36.25;25.01;100551.81;146623;596;46020;-82
2022/08/05 13:55:36;;;;;;;;;7.00;7.00;;;;;36.22;24.50;100554.69;146620;603;46016;-81
2022/08/05 13:58:47;;;;;;;;;6.00;6.00;;;;;35.62;25.55;100458.28;146620;578;46021;-82
2022/08/05 14:01:41;;;;;;;;;7.50;7.50;;;;;36.15;24.28;100546.09;146620;564;46925;-82
2022/08/05 14:07:55;;;;;;;;;6.00;6.00;;;;;36.07;24.85;100556.44;146620;667;46016;-80
2022/08/05 14:10:51;;;;;;;;;5.25;5.25;;;;;35.97;25.15;100550.69;146626;707;45020;-85
2022/08/05 14:13:57;;;;;;;;;7.25;6.50;;;;;34.97;26.31;100381.97;146624;565;45017;-82
2022/08/05 14:16:55;;;;;;;;;6.75;6.00;;;;;35.97;24.00;100547.97;146626;709;45036;-81
2022/08/05 14:19:50;;;;;;;;;6.50;4.00;;;;;36.03;24.43;100546.78;146620;641;45017;-82
2022/08/05 14:22:47;;;;;;;;;6.75;6.75;;;;;36.09;25.29;100549.13;146623;642;45020;-82
2022/08/05 14:25:59;;;;;;;;;7.00;5.75;;;;;36.11;26.01;100549.94;146607;628;46016;-82
2022/08/05 14:28:55;;;;;;;;;6.00;6.00;;;;;36.09;25.03;100538.34;146608;675;46019;-84
2022/08/05 14:31:52;;;;;;;;;6.50;6.50;;;;;36.05;24.52;100528.69;146607;606;46012;-84